Time;durP1;ratioP1;P1;durP2;ratioP2;P2;SDS_P1;SDS_P2;PMS_P1;PMS_P2;Temp;Humidity;BMP_temperature;BMP_pressure;BME280_temperature;BME280_humidity;BME280_pressure;Samples;Min_cycle;Max_cycle;Signal;HPM_P1;HPM_P2
2022/01/11 00:00:22;;;;;;;18.23;12.70;;;3.00;99.90;;;;;;5066397;28;20465;-39
2022/01/11 00:02:50;;;;;;;15.30;10.93;;;3.30;99.90;;;;;;5067365;28;20439;-39
2022/01/11 00:05:30;;;;;;;17.77;10.83;;;3.30;99.90;;;;;;5066873;28;20447;-39
2022/01/11 00:07:56;;;;;;;16.50;9.90;;;3.20;99.90;;;;;;5058061;28;21063;-39
2022/01/11 00:10:35;;;;;;;14.90;9.53;;;3.10;99.90;;;;;;5065365;28;20701;-39
2022/01/11 00:13:02;;;;;;;13.50;11.07;;;3.10;99.90;;;;;;5058582;28;20463;-39
2022/01/11 00:15:28;;;;;;;20.70;10.63;;;3.50;99.90;;;;;;5067467;28;20415;-39
2022/01/11 00:17:56;;;;;;;11.53;9.00;;;3.30;99.90;;;;;;5067415;28;20848;-39
2022/01/11 00:20:23;;;;;;;15.43;8.93;;;3.50;99.90;;;;;;5066734;28;20979;-39
2022/01/11 00:25:38;;;;;;;12.80;9.73;;;3.20;99.90;;;;;;5055156;28;20431;-39
2022/01/11 00:28:06;;;;;;;13.73;8.30;;;3.30;99.90;;;;;;5057206;28;21009;-39
2022/01/11 00:30:34;;;;;;;14.70;9.70;;;3.20;99.90;;;;;;5066476;28;20433;-39
2022/01/11 00:33:05;;;;;;;13.20;10.20;;;3.30;99.90;;;;;;5066669;28;20819;-39
2022/01/11 00:35:57;;;;;;;17.70;9.03;;;3.20;99.90;;;;;;5067140;28;20510;-40
2022/01/11 00:38:26;;;;;;;12.50;8.93;;;3.30;99.90;;;;;;5054632;28;20434;-39
2022/01/11 00:40:57;;;;;;;12.50;9.30;;;3.20;99.90;;;;;;5066195;28;20428;-39
2022/01/11 00:43:25;;;;;;;13.27;9.50;;;3.10;99.90;;;;;;5057090;28;20620;-39
2022/01/11 00:45:52;;;;;;;18.10;10.40;;;3.20;99.90;;;;;;5066756;28;20518;-39
2022/01/11 00:48:19;;;;;;;18.10;10.07;;;3.30;99.90;;;;;;5067090;28;20419;-39
2022/01/11 00:50:46;;;;;;;17.50;10.17;;;3.30;99.90;;;;;;5066314;28;20781;-39
2022/01/11 00:53:12;;;;;;;16.40;10.67;;;3.20;99.90;;;;;;5066883;28;20459;-39
2022/01/11 00:55:38;;;;;;;13.00;9.33;;;3.30;99.90;;;;;;5066711;28;20446;-39
2022/01/11 00:58:05;;;;;;;16.67;9.97;;;3.30;99.90;;;;;;5054753;28;20202;-40
2022/01/11 01:00:32;;;;;;;15.80;9.63;;;3.20;99.90;;;;;;5064205;28;20866;-39
2022/01/11 01:02:58;;;;;;;13.00;9.67;;;3.20;99.90;;;;;;5056362;28;20481;-40
2022/01/11 01:05:24;;;;;;;15.57;10.00;;;3.00;99.90;;;;;;5066068;28;20439;-39
2022/01/11 01:07:50;;;;;;;14.23;9.70;;;2.80;99.90;;;;;;5066739;28;20200;-39
2022/01/11 01:12:49;;;;;;;14.07;9.57;;;3.20;99.90;;;;;;5059032;28;21161;-40
2022/01/11 01:15:15;;;;;;;14.40;9.20;;;3.00;99.90;;;;;;5064155;28;20419;-40
2022/01/11 01:17:40;;;;;;;12.47;8.70;;;3.20;99.90;;;;;;5066518;28;20643;-39
2022/01/11 01:20:07;;;;;;;12.50;9.17;;;3.10;99.90;;;;;;5065507;28;20463;-39
2022/01/11 01:22:33;;;;;;;13.83;9.27;;;3.20;99.90;;;;;;5071287;28;20280;-39
2022/01/11 01:24:58;;;;;;;12.47;8.80;;;3.00;99.90;;;;;;5064232;28;20914;-38
2022/01/11 01:27:24;;;;;;;10.80;7.93;;;3.10;99.90;;;;;;5059682;28;20548;-39
2022/01/11 01:29:50;;;;;;;11.47;8.77;;;2.70;99.90;;;;;;5064896;28;20523;-39
2022/01/11 01:32:16;;;;;;;13.97;8.40;;;2.70;99.90;;;;;;5066304;28;20523;-39
2022/01/11 01:34:41;;;;;;;12.20;8.10;;;2.90;99.90;;;;;;5066141;28;20220;-39
2022/01/11 01:37:07;;;;;;;14.57;8.77;;;2.70;99.90;;;;;;5064814;28;20216;-39
2022/01/11 01:39:35;;;;;;;12.80;8.53;;;2.40;99.90;;;;;;5066035;28;20185;-40
2022/01/11 01:42:05;;;;;;;17.37;8.80;;;2.20;99.90;;;;;;5061699;28;20744;-39
2022/01/11 01:44:33;;;;;;;15.10;9.03;;;2.10;99.90;;;;;;5059059;28;20426;-40
2022/01/11 01:46:58;;;;;;;12.83;8.13;;;2.00;99.90;;;;;;5065931;28;20427;-39
2022/01/11 01:49:25;;;;;;;12.07;8.37;;;2.10;99.90;;;;;;5066158;28;20429;-39
2022/01/11 01:51:50;;;;;;;12.40;8.37;;;1.90;99.90;;;;;;5065806;28;20588;-39
2022/01/11 01:54:18;;;;;;;14.60;8.73;;;1.80;99.90;;;;;;5067975;28;20467;-40
2022/01/11 01:56:44;;;;;;;15.53;8.90;;;2.00;99.90;;;;;;5068401;28;20203;-39
2022/01/11 01:59:10;;;;;;;13.83;8.90;;;1.90;99.90;;;;;;5060817;28;20423;-40
2022/01/11 02:01:44;;;;;;;11.63;7.73;;;1.90;99.90;;;;;;5068553;28;20501;-39
2022/01/11 02:04:10;;;;;;;13.17;8.00;;;1.80;99.90;;;;;;5056832;28;20438;-39
2022/01/11 02:06:36;;;;;;;13.17;8.80;;;1.60;99.90;;;;;;5068331;28;20431;-39
2022/01/11 02:09:03;;;;;;;14.23;9.30;;;1.50;99.90;;;;;;5070034;28;20456;-39
2022/01/11 02:11:32;;;;;;;12.27;8.27;;;1.60;99.90;;;;;;5069154;28;20470;-39
2022/01/11 02:13:58;;;;;;;12.90;8.40;;;1.60;99.90;;;;;;5077677;28;20477;-39
2022/01/11 02:16:24;;;;;;;12.37;8.57;;;1.80;99.90;;;;;;5069156;28;20956;-39
2022/01/11 02:18:51;;;;;;;11.47;8.30;;;2.00;99.90;;;;;;5069725;28;20510;-39
2022/01/11 02:21:17;;;;;;;13.00;7.60;;;2.10;99.90;;;;;;5068817;28;20473;-40
2022/01/11 02:23:43;;;;;;;10.77;7.37;;;2.20;99.90;;;;;;5068010;28;20937;-40
2022/01/11 02:26:09;;;;;;;13.30;8.43;;;1.70;99.90;;;;;;5069406;28;20427;-40
2022/01/11 02:28:35;;;;;;;13.37;8.23;;;2.20;99.90;;;;;;5060288;28;20459;-39
2022/01/11 02:31:04;;;;;;;11.10;8.33;;;2.00;99.90;;;;;;5068384;28;20220;-40
2022/01/11 02:33:37;;;;;;;12.50;8.97;;;2.00;99.90;;;;;;5069355;28;20467;-40
2022/01/11 02:36:08;;;;;;;12.43;8.20;;;1.90;99.90;;;;;;5069250;28;20424;-39
2022/01/11 02:38:35;;;;;;;9.80;7.70;;;1.90;99.90;;;;;;5069156;28;20906;-39
2022/01/11 02:41:02;;;;;;;11.57;7.60;;;1.40;99.90;;;;;;5068558;28;20427;-40
2022/01/11 02:43:28;;;;;;;14.30;8.00;;;1.50;99.90;;;;;;5059570;28;20424;-39
2022/01/11 02:45:55;;;;;;;10.80;7.67;;;1.40;99.90;;;;;;5069016;28;20467;-40
2022/01/11 02:48:23;;;;;;;12.77;8.77;;;1.30;99.90;;;;;;5069066;28;20775;-39
2022/01/11 02:50:49;;;;;;;15.80;8.80;;;1.40;99.90;;;;;;5068286;28;20454;-39
2022/01/11 02:53:17;;;;;;;11.97;7.60;;;1.70;99.90;;;;;;5068888;28;20467;-39
2022/01/11 02:55:43;;;;;;;11.57;7.60;;;1.60;99.90;;;;;;5068376;28;20193;-39
2022/01/11 02:58:13;;;;;;;11.77;7.47;;;1.70;99.90;;;;;;5060285;28;20444;-39
2022/01/11 03:00:40;;;;;;;13.13;8.27;;;1.60;99.90;;;;;;5067437;28;20506;-41
2022/01/11 03:03:13;;;;;;;11.40;7.40;;;1.40;99.90;;;;;;5067676;28;20439;-40
2022/01/11 03:05:54;;;;;;;10.77;7.70;;;1.90;99.90;;;;;;5068249;28;20527;-41
2022/01/11 03:08:21;;;;;;;12.83;7.40;;;1.90;99.90;;;;;;5068655;28;20669;-39
2022/01/11 03:10:49;;;;;;;11.23;7.40;;;2.00;99.90;;;;;;5067990;28;20434;-39
2022/01/11 03:13:18;;;;;;;11.37;6.70;;;2.30;99.90;;;;;;5060193;28;20542;-39
2022/01/11 03:15:46;;;;;;;10.00;7.70;;;2.20;99.90;;;;;;5060401;28;20427;-39
2022/01/11 03:18:13;;;;;;;12.90;8.73;;;2.40;99.90;;;;;;5068726;28;20427;-39
2022/01/11 03:20:40;;;;;;;9.00;6.50;;;2.40;99.90;;;;;;5067747;28;20423;-39
2022/01/11 03:23:07;;;;;;;9.90;7.80;;;2.70;99.90;;;;;;5068238;28;20808;-39
2022/01/11 03:25:34;;;;;;;9.90;6.70;;;2.70;99.90;;;;;;5068157;28;20428;-39
2022/01/11 03:28:00;;;;;;;9.63;7.13;;;2.60;99.90;;;;;;5064435;28;20524;-39
2022/01/11 03:30:26;;;;;;;12.97;7.30;;;2.50;99.90;;;;;;5057969;28;20419;-39
2022/01/11 03:32:51;;;;;;;10.60;7.00;;;2.60;99.90;;;;;;5068163;28;21042;-40
2022/01/11 03:35:18;;;;;;;10.57;7.20;;;2.70;99.90;;;;;;5067895;28;20424;-39
2022/01/11 03:37:46;;;;;;;11.70;7.70;;;2.70;99.90;;;;;;5068185;28;20192;-39
2022/01/11 03:40:15;;;;;;;11.70;7.43;;;2.60;99.90;;;;;;5067506;28;20448;-40
2022/01/11 03:42:41;;;;;;;11.40;7.90;;;2.40;99.90;;;;;;5066004;28;20485;-39
2022/01/11 03:45:09;;;;;;;10.83;6.70;;;2.50;99.90;;;;;;5060881;28;20411;-41
2022/01/11 03:47:35;;;;;;;10.80;7.60;;;2.40;99.90;;;;;;5067486;28;20427;-39
2022/01/11 03:50:01;;;;;;;10.53;7.20;;;2.50;99.90;;;;;;5067041;28;20419;-39
2022/01/11 03:52:27;;;;;;;9.57;7.43;;;2.40;99.90;;;;;;5066359;28;20462;-39
2022/01/11 03:57:24;;;;;;;10.57;6.67;;;2.50;99.90;;;;;;5067497;28;20193;-39
2022/01/11 03:59:50;;;;;;;9.37;6.57;;;2.10;99.90;;;;;;5054898;28;20485;-40
2022/01/11 04:02:16;;;;;;;11.97;7.23;;;2.10;99.90;;;;;;5067241;28;20416;-39
2022/01/11 04:04:41;;;;;;;10.03;6.40;;;2.20;99.90;;;;;;5067394;28;20200;-39
2022/01/11 04:07:07;;;;;;;8.57;6.67;;;1.80;99.90;;;;;;5067412;28;20435;-39
2022/01/11 04:09:34;;;;;;;10.30;6.53;;;1.60;99.90;;;;;;5067220;28;20189;-39
2022/01/11 04:11:59;;;;;;;9.30;5.87;;;1.60;99.90;;;;;;5067036;28;20506;-39
2022/01/11 04:14:25;;;;;;;8.30;6.03;;;1.60;99.90;;;;;;5057480;28;20563;-39
2022/01/11 04:16:52;;;;;;;8.60;5.83;;;1.70;99.90;;;;;;5066871;28;20188;-39
2022/01/11 04:19:19;;;;;;;8.43;6.07;;;1.60;99.90;;;;;;5067093;28;20499;-39
2022/01/11 04:21:45;;;;;;;6.83;4.77;;;1.60;99.90;;;;;;5066457;28;20416;-39
2022/01/11 04:24:12;;;;;;;7.87;5.90;;;1.60;99.90;;;;;;5067127;28;20480;-39
2022/01/11 04:26:39;;;;;;;6.00;4.77;;;1.60;99.90;;;;;;5067092;28;20423;-39
2022/01/11 04:29:06;;;;;;;7.83;5.53;;;1.80;99.90;;;;;;5059063;28;20427;-39
2022/01/11 04:31:32;;;;;;;5.40;4.17;;;2.30;99.90;;;;;;5064736;28;20836;-39
2022/01/11 04:33:58;;;;;;;7.87;4.83;;;2.30;99.90;;;;;;5066822;28;20462;-39
2022/01/11 04:36:24;;;;;;;8.80;4.70;;;2.40;99.90;;;;;;5067042;28;20638;-40
2022/01/11 04:38:50;;;;;;;7.33;5.60;;;2.50;99.90;;;;;;5067060;28;20428;-40
2022/01/11 04:41:16;;;;;;;6.43;4.90;;;2.30;99.90;;;;;;5066383;28;20420;-41
2022/01/11 04:43:42;;;;;;;8.00;5.00;;;2.60;99.90;;;;;;5060566;28;20433;-40
2022/01/11 04:46:08;;;;;;;6.10;4.57;;;2.30;99.90;;;;;;5062212;28;20185;-39
2022/01/11 04:48:33;;;;;;;7.77;4.93;;;2.30;99.90;;;;;;5066843;28;20185;-39
2022/01/11 04:51:00;;;;;;;6.57;5.00;;;2.60;99.90;;;;;;5066735;28;20666;-40
2022/01/11 04:53:26;;;;;;;6.70;5.03;;;2.30;99.90;;;;;;5066663;28;20568;-40
2022/01/11 04:55:52;;;;;;;6.80;4.70;;;2.50;99.90;;;;;;5066814;28;20467;-40
2022/01/11 04:58:18;;;;;;;8.70;5.37;;;1.80;99.90;;;;;;5063853;28;20546;-41
2022/01/11 05:00:44;;;;;;;9.20;4.90;;;1.90;99.90;;;;;;5063608;28;20318;-40
2022/01/11 05:03:10;;;;;;;6.90;4.87;;;1.50;99.90;;;;;;5066763;28;20212;-40
2022/01/11 05:05:35;;;;;;;8.47;5.83;;;1.40;99.90;;;;;;5066624;28;20509;-40
2022/01/11 05:08:02;;;;;;;7.30;4.90;;;1.50;99.90;;;;;;5066859;28;20181;-40
2022/01/11 05:10:28;;;;;;;9.83;5.47;;;1.30;99.90;;;;;;5065904;28;20192;-39
2022/01/11 05:12:54;;;;;;;6.57;4.67;;;1.40;99.90;;;;;;5066702;28;20458;-40
2022/01/11 05:15:20;;;;;;;7.20;5.17;;;1.40;99.90;;;;;;5055852;28;20432;-39
2022/01/11 05:17:46;;;;;;;10.23;6.00;;;1.60;99.90;;;;;;5066818;28;20585;-43
2022/01/11 05:20:13;;;;;;;9.80;6.33;;;1.40;99.90;;;;;;5066136;28;20423;-40
2022/01/11 05:22:39;;;;;;;8.23;5.27;;;1.60;99.90;;;;;;5066854;28;20736;-40
2022/01/11 05:25:06;;;;;;;7.80;5.40;;;1.50;99.90;;;;;;5066389;28;20958;-40
2022/01/11 05:27:32;;;;;;;9.63;5.70;;;1.40;99.90;;;;;;5067187;28;20411;-39
2022/01/11 05:29:58;;;;;;;8.00;5.03;;;1.50;99.90;;;;;;5059675;28;20664;-39
2022/01/11 05:32:24;;;;;;;8.93;6.43;;;1.30;99.90;;;;;;5070441;28;20856;-40
2022/01/11 05:34:49;;;;;;;8.67;6.10;;;1.10;99.90;;;;;;5070626;28;20213;-40
2022/01/11 05:37:15;;;;;;;8.90;6.83;;;1.10;99.90;;;;;;5070411;28;20181;-39
2022/01/11 05:39:41;;;;;;;8.63;6.20;;;1.20;99.90;;;;;;5069966;28;20561;-40
2022/01/11 05:42:08;;;;;;;7.67;4.87;;;1.00;99.90;;;;;;5063124;28;20181;-40
2022/01/11 05:44:34;;;;;;;10.93;6.67;;;1.10;99.90;;;;;;5059274;28;20185;-40
2022/01/11 05:47:00;;;;;;;10.40;6.70;;;1.10;99.90;;;;;;5070123;28;20424;-39
2022/01/11 05:49:26;;;;;;;9.30;5.80;;;1.20;99.90;;;;;;5070051;28;20431;-39
2022/01/11 05:51:51;;;;;;;10.37;6.50;;;1.30;99.90;;;;;;5069243;28;20230;-41
2022/01/11 05:54:17;;;;;;;9.77;7.00;;;1.20;99.90;;;;;;5070378;28;20216;-39
2022/01/11 05:56:43;;;;;;;10.53;6.70;;;1.40;99.90;;;;;;5069263;28;20211;-40
2022/01/11 05:59:08;;;;;;;8.33;5.93;;;1.60;99.90;;;;;;5062779;28;20216;-39
2022/01/11 06:01:35;;;;;;;10.60;6.10;;;1.50;99.90;;;;;;5062399;28;20208;-39
2022/01/11 06:04:01;;;;;;;10.53;6.20;;;1.60;99.90;;;;;;5073789;28;20189;-40
2022/01/11 06:06:26;;;;;;;8.70;6.00;;;1.50;99.90;;;;;;5068411;28;20411;-39
2022/01/11 06:08:52;;;;;;;12.23;6.90;;;1.60;99.90;;;;;;5068265;28;20701;-40
2022/01/11 06:11:18;;;;;;;8.93;6.30;;;1.70;99.90;;;;;;5069191;28;20234;-39
2022/01/11 06:13:44;;;;;;;9.00;7.00;;;1.60;99.90;;;;;;5069196;28;20211;-41
2022/01/11 06:16:10;;;;;;;10.27;7.20;;;1.60;99.90;;;;;;5063775;28;20181;-39
2022/01/11 06:18:36;;;;;;;8.10;6.63;;;1.40;99.90;;;;;;5069243;28;20791;-43
2022/01/11 06:21:02;;;;;;;11.33;7.70;;;1.60;99.90;;;;;;5069138;28;20428;-40
2022/01/11 06:23:28;;;;;;;15.87;9.50;;;1.80;99.90;;;;;;5069227;28;20455;-40
2022/01/11 06:25:54;;;;;;;8.27;6.73;;;1.20;99.90;;;;;;5069483;28;20903;-40
2022/01/11 06:28:19;;;;;;;7.30;5.23;;;1.40;99.90;;;;;;5068970;28;20239;-40
2022/01/11 06:30:47;;;;;;;9.70;5.33;;;1.50;99.90;;;;;;5079675;28;20201;-39
2022/01/11 06:33:13;;;;;;;7.47;5.57;;;1.70;99.90;;;;;;5065964;28;20664;-40
2022/01/11 06:35:39;;;;;;;9.70;5.57;;;1.80;99.90;;;;;;5068677;28;20411;-40
2022/01/11 06:38:05;;;;;;;7.00;5.30;;;1.70;99.90;;;;;;5069214;28;20416;-41
2022/01/11 06:40:30;;;;;;;7.17;5.67;;;1.70;99.90;;;;;;5068126;28;20826;-39
2022/01/11 06:42:56;;;;;;;6.23;4.87;;;1.60;99.90;;;;;;5068671;28;20287;-41
2022/01/11 06:45:22;;;;;;;12.17;6.27;;;1.80;99.90;;;;;;5058496;28;20189;-39
2022/01/11 06:47:48;;;;;;;7.70;5.00;;;1.80;99.90;;;;;;5063596;28;20197;-41
2022/01/11 06:50:14;;;;;;;7.67;4.60;;;2.10;99.90;;;;;;5068108;28;20411;-40
2022/01/11 06:52:40;;;;;;;9.90;4.90;;;1.70;99.90;;;;;;5069019;28;20249;-40
2022/01/11 06:55:07;;;;;;;11.13;5.43;;;1.70;99.90;;;;;;5080608;28;20310;-40
2022/01/11 06:57:33;;;;;;;7.60;5.10;;;1.60;99.90;;;;;;5088720;28;21011;-40
2022/01/11 06:59:59;;;;;;;8.73;5.63;;;1.60;99.90;;;;;;5065854;28;20432;-40
2022/01/11 07:02:25;;;;;;;6.90;4.60;;;1.60;99.90;;;;;;5060956;28;20447;-40
2022/01/11 07:04:51;;;;;;;9.27;5.80;;;1.50;99.90;;;;;;5056310;28;20463;-40
2022/01/11 07:07:17;;;;;;;7.43;5.30;;;1.70;99.90;;;;;;5068949;28;20288;-40
2022/01/11 07:09:42;;;;;;;6.73;5.00;;;1.80;99.90;;;;;;5066730;28;20185;-40
2022/01/11 07:12:09;;;;;;;9.07;5.13;;;1.90;99.90;;;;;;5066344;28;20652;-40
2022/01/11 07:14:34;;;;;;;8.13;4.83;;;1.70;99.90;;;;;;5064306;28;20628;-40
2022/01/11 07:17:00;;;;;;;7.47;4.93;;;1.90;99.90;;;;;;5064216;28;20417;-40
2022/01/11 07:19:29;;;;;;;7.00;4.97;;;2.10;99.90;;;;;;5068493;28;20208;-39
2022/01/11 07:21:58;;;;;;;6.80;4.47;;;1.80;99.90;;;;;;5062522;28;20607;-40
2022/01/11 07:24:24;;;;;;;7.27;5.03;;;1.90;99.90;;;;;;5065766;28;20564;-39
2022/01/11 07:26:50;;;;;;;5.60;4.17;;;2.00;99.90;;;;;;5069661;28;20424;-40
2022/01/11 07:29:16;;;;;;;7.77;4.87;;;2.10;99.90;;;;;;5065865;28;20992;-40
2022/01/11 07:31:42;;;;;;;10.30;5.07;;;2.10;99.90;;;;;;5062695;28;20607;-39
2022/01/11 07:34:09;;;;;;;7.47;4.70;;;2.10;99.90;;;;;;5067598;28;20223;-39
2022/01/11 07:36:36;;;;;;;8.40;4.87;;;2.20;99.90;;;;;;5067013;28;20188;-41
2022/01/11 07:39:03;;;;;;;6.27;4.70;;;2.00;99.90;;;;;;5066425;28;21059;-40
2022/01/11 07:41:29;;;;;;;6.07;4.90;;;2.10;99.90;;;;;;5065679;28;20842;-39
2022/01/11 07:43:55;;;;;;;7.70;4.70;;;2.20;99.90;;;;;;5067495;28;20504;-39
2022/01/11 07:46:21;;;;;;;9.50;5.80;;;2.00;99.90;;;;;;5053633;28;20258;-40
2022/01/11 07:48:46;;;;;;;6.20;4.40;;;2.10;99.90;;;;;;5068008;28;20585;-39
2022/01/11 07:51:12;;;;;;;9.73;5.73;;;2.10;99.90;;;;;;5064725;28;20429;-40
2022/01/11 07:53:38;;;;;;;7.60;5.20;;;2.30;99.90;;;;;;5067530;28;20244;-40
2022/01/11 07:56:04;;;;;;;7.30;4.73;;;2.10;99.90;;;;;;5067294;28;20227;-42
2022/01/11 07:58:29;;;;;;;9.00;4.37;;;2.20;99.90;;;;;;5065746;28;20193;-41
2022/01/11 08:00:55;;;;;;;9.10;4.30;;;2.20;99.90;;;;;;5051412;28;20189;-40
2022/01/11 08:03:21;;;;;;;6.10;3.87;;;2.00;99.90;;;;;;5064159;28;20227;-41
2022/01/11 08:05:47;;;;;;;8.73;4.40;;;2.30;99.90;;;;;;5066311;28;20519;-39
2022/01/11 08:08:12;;;;;;;7.17;3.80;;;2.20;99.90;;;;;;5063343;28;20217;-40
2022/01/11 08:10:38;;;;;;;6.73;4.60;;;2.20;99.90;;;;;;5066806;28;20396;-42
2022/01/11 08:13:07;;;;;;;8.80;5.07;;;2.30;99.90;;;;;;5071654;28;20236;-43
2022/01/11 08:15:34;;;;;;;6.57;4.73;;;2.60;99.90;;;;;;5062108;28;20228;-40
2022/01/11 08:18:00;;;;;;;8.23;4.87;;;2.50;99.90;;;;;;5067104;28;20689;-41
2022/01/11 08:20:25;;;;;;;7.40;5.17;;;2.60;99.90;;;;;;5075203;28;20428;-40
2022/01/11 08:22:53;;;;;;;8.50;4.80;;;2.40;99.90;;;;;;5061079;28;20789;-41
2022/01/11 08:25:20;;;;;;;7.23;4.37;;;2.50;99.90;;;;;;5067425;28;20185;-43
2022/01/11 08:27:46;;;;;;;7.10;4.90;;;2.50;99.90;;;;;;5067075;28;20412;-40
2022/01/11 08:30:12;;;;;;;11.60;4.90;;;2.80;99.90;;;;;;5058794;28;20424;-43
2022/01/11 08:32:38;;;;;;;8.30;4.13;;;2.80;99.90;;;;;;5061843;28;20492;-42
2022/01/11 08:35:04;;;;;;;5.20;4.10;;;2.90;99.90;;;;;;5066862;28;20188;-45
2022/01/11 08:37:30;;;;;;;9.20;4.80;;;3.10;99.90;;;;;;5066908;28;20423;-42
2022/01/11 08:39:56;;;;;;;6.50;4.20;;;3.10;99.90;;;;;;5066292;28;20426;-41
2022/01/11 08:42:22;;;;;;;6.63;4.30;;;3.40;99.90;;;;;;5066913;28;20181;-39
2022/01/11 08:44:49;;;;;;;5.80;4.60;;;3.50;99.90;;;;;;5064248;28;20432;-39
2022/01/11 08:47:16;;;;;;;6.57;4.40;;;3.40;99.90;;;;;;5065852;28;20419;-40
2022/01/11 08:49:42;;;;;;;8.93;4.63;;;3.60;99.90;;;;;;5058036;28;20451;-40
2022/01/11 08:52:10;;;;;;;8.73;4.27;;;3.60;99.90;;;;;;5065261;28;20516;-43
2022/01/11 08:54:36;;;;;;;7.70;4.90;;;4.00;99.90;;;;;;5066966;28;20570;-43
2022/01/11 08:57:02;;;;;;;5.83;4.03;;;4.40;99.90;;;;;;5066888;28;20439;-40
2022/01/11 08:59:28;;;;;;;6.90;4.17;;;4.40;99.90;;;;;;5065541;28;20499;-40
2022/01/11 09:01:57;;;;;;;9.30;4.50;;;4.50;99.90;;;;;;5054432;28;20436;-42
2022/01/11 09:04:24;;;;;;;5.50;4.40;;;4.70;99.90;;;;;;5066853;28;20422;-43
2022/01/11 09:06:51;;;;;;;6.93;4.50;;;5.00;99.90;;;;;;5066559;28;20488;-41
2022/01/11 09:09:18;;;;;;;7.20;3.87;;;4.70;99.90;;;;;;5066830;28;20462;-40
2022/01/11 09:11:45;;;;;;;12.70;4.60;;;5.10;99.90;;;;;;5066331;28;20790;-40
2022/01/11 09:14:11;;;;;;;8.90;4.40;;;5.30;99.90;;;;;;5075115;28;20485;-41
2022/01/11 09:16:37;;;;;;;8.77;4.37;;;5.80;99.90;;;;;;5060049;28;21442;-40
2022/01/11 09:19:03;;;;;;;5.87;4.40;;;6.00;99.90;;;;;;5066467;28;20411;-40
2022/01/11 09:21:30;;;;;;;5.40;3.80;;;6.50;99.90;;;;;;5065675;28;20419;-40
2022/01/11 09:23:56;;;;;;;4.63;3.67;;;6.30;99.90;;;;;;5066759;28;20575;-40
2022/01/11 09:26:22;;;;;;;4.80;4.00;;;6.70;99.90;;;;;;5066541;28;20466;-41
2022/01/11 09:28:47;;;;;;;3.90;3.47;;;6.70;99.90;;;;;;5066904;28;20987;-40
2022/01/11 09:31:13;;;;;;;4.33;3.47;;;6.90;99.90;;;;;;5059475;28;20221;-41
2022/01/11 09:33:39;;;;;;;6.03;3.83;;;7.20;99.90;;;;;;5066623;28;20201;-40
2022/01/11 09:36:05;;;;;;;5.17;3.20;;;7.30;99.90;;;;;;5066294;28;20211;-41
2022/01/11 09:38:31;;;;;;;7.57;4.30;;;7.50;99.90;;;;;;5066905;28;20279;-41
2022/01/11 09:40:58;;;;;;;5.00;3.67;;;7.50;99.90;;;;;;5065577;28;20796;-40
2022/01/11 09:43:26;;;;;;;4.90;3.67;;;7.70;99.90;;;;;;5066523;28;20199;-40
2022/01/11 09:45:52;;;;;;;8.90;4.30;;;8.10;99.90;;;;;;5059513;28;20428;-40
2022/01/11 09:48:23;;;;;;;5.63;3.60;;;8.00;99.90;;;;;;5062768;28;20416;-40
2022/01/11 09:50:49;;;;;;;5.63;3.23;;;8.40;99.90;;;;;;5065947;28;20481;-40
2022/01/11 09:53:15;;;;;;;5.43;3.20;;;8.70;99.90;;;;;;5065958;28;20469;-40
2022/01/11 09:55:41;;;;;;;6.07;3.67;;;9.20;99.90;;;;;;5066510;28;20427;-40
2022/01/11 09:58:07;;;;;;;7.53;3.73;;;9.20;99.90;;;;;;5066063;28;20188;-40
2022/01/11 10:00:34;;;;;;;4.73;3.20;;;9.40;99.90;;;;;;5059312;28;20438;-42
2022/01/11 10:03:00;;;;;;;5.17;3.43;;;9.60;99.90;;;;;;5060224;28;20963;-40
2022/01/11 10:05:26;;;;;;;4.77;3.23;;;9.50;99.90;;;;;;5066109;28;20419;-41
2022/01/11 10:07:52;;;;;;;3.50;3.00;;;9.50;99.90;;;;;;5066189;28;20496;-40
2022/01/11 10:10:22;;;;;;;4.90;3.43;;;9.90;99.80;;;;;;5065588;28;20178;-44
2022/01/11 10:12:51;;;;;;;6.10;3.27;;;10.40;98.00;;;;;;5065977;28;20461;-44
2022/01/11 10:15:29;;;;;;;6.43;3.40;;;10.70;97.00;;;;;;5078202;28;20938;-41
2022/01/11 10:17:55;;;;;;;8.50;5.30;;;11.10;97.10;;;;;;5063056;28;20848;-42
2022/01/11 10:20:25;;;;;;;6.50;3.77;;;11.50;96.30;;;;;;5069057;28;20502;-43
2022/01/11 10:23:01;;;;;;;5.13;4.10;;;11.90;95.30;;;;;;5069552;28;20261;-41
2022/01/11 10:25:40;;;;;;;5.23;3.67;;;12.40;94.90;;;;;;5069700;28;20419;-42
2022/01/11 10:28:06;;;;;;;6.10;3.60;;;12.70;93.90;;;;;;5069816;28;20442;-42
2022/01/11 10:30:33;;;;;;;7.37;4.30;;;12.90;93.40;;;;;;5064866;28;20538;-44
2022/01/11 10:33:01;;;;;;;5.57;4.00;;;13.20;92.90;;;;;;5065662;28;20419;-41
2022/01/11 10:35:42;;;;;;;5.80;3.90;;;13.50;91.90;;;;;;5069812;28;20799;-41
2022/01/11 10:38:08;;;;;;;5.73;3.70;;;13.20;92.20;;;;;;5069476;28;20412;-41
2022/01/11 10:40:40;;;;;;;5.00;3.80;;;13.20;91.80;;;;;;5069021;28;20423;-40
2022/01/11 10:43:08;;;;;;;5.00;3.60;;;13.00;91.80;;;;;;5069232;28;20430;-42
2022/01/11 10:45:39;;;;;;;6.80;3.60;;;12.40;92.60;;;;;;5082195;28;20488;-41
2022/01/11 10:48:11;;;;;;;5.67;3.60;;;11.70;93.50;;;;;;5057195;28;20419;-42
2022/01/11 10:50:43;;;;;;;6.50;4.27;;;11.00;94.50;;;;;;5068299;28;20534;-40
2022/01/11 10:53:21;;;;;;;4.57;3.90;;;10.80;95.80;;;;;;5068866;28;20494;-41
2022/01/11 10:56:07;;;;;;;6.17;4.03;;;11.20;95.50;;;;;;5068956;28;20423;-41
2022/01/11 10:58:36;;;;;;;5.90;4.10;;;11.50;95.00;;;;;;5084649;28;20859;-49
2022/01/11 11:01:04;;;;;;;6.97;4.33;;;12.20;94.00;;;;;;5061780;28;20431;-42
2022/01/11 11:03:32;;;;;;;5.47;3.60;;;12.50;93.10;;;;;;5063925;28;20801;-43
2022/01/11 11:06:07;;;;;;;7.07;4.00;;;11.90;92.30;;;;;;5068631;28;20433;-42
2022/01/11 11:08:40;;;;;;;4.43;3.43;;;11.40;93.60;;;;;;5069148;28;20820;-40
2022/01/11 11:11:15;;;;;;;6.60;4.23;;;11.00;93.80;;;;;;5067838;28;20435;-41
2022/01/11 11:13:45;;;;;;;5.07;3.63;;;10.70;94.90;;;;;;5072792;28;20453;-41
2022/01/11 11:16:21;;;;;;;5.93;4.00;;;10.60;96.40;;;;;;5076509;28;20522;-46
2022/01/11 11:18:57;;;;;;;6.10;4.10;;;10.00;96.40;;;;;;5062273;28;20438;-43
2022/01/11 11:21:32;;;;;;;6.60;3.83;;;9.60;97.80;;;;;;5067609;28;20518;-44
2022/01/11 11:24:00;;;;;;;7.47;3.83;;;9.50;98.50;;;;;;5068813;28;20458;-42
2022/01/11 11:26:29;;;;;;;7.10;4.33;;;9.00;99.60;;;;;;5067752;28;20434;-43
2022/01/11 11:28:56;;;;;;;5.50;4.10;;;8.90;99.90;;;;;;5068854;28;20951;-41
2022/01/11 11:31:22;;;;;;;7.10;4.63;;;8.80;99.90;;;;;;5062544;28;20438;-42
2022/01/11 11:33:50;;;;;;;5.93;4.40;;;8.60;99.90;;;;;;5062915;28;20616;-41
2022/01/11 11:36:17;;;;;;;10.47;5.47;;;8.40;99.90;;;;;;5067688;28;20419;-41
2022/01/11 11:38:54;;;;;;;7.63;5.40;;;8.10;99.90;;;;;;5067962;28;20427;-41
2022/01/11 11:41:20;;;;;;;10.63;5.40;;;8.00;99.90;;;;;;5067183;28;20443;-41
2022/01/11 11:44:17;;;;;;;8.30;5.47;;;8.60;99.90;;;;;;5068153;28;20415;-40
2022/01/11 11:47:00;;;;;;;10.13;6.07;;;8.60;99.90;;;;;;5040640;28;20439;-43
2022/01/11 11:49:52;;;;;;;10.37;5.63;;;8.80;99.90;;;;;;5066102;28;20415;-41
2022/01/11 11:52:27;;;;;;;10.93;5.90;;;9.70;99.90;;;;;;5066144;28;20948;-41
2022/01/11 11:54:54;;;;;;;9.27;5.70;;;10.50;99.40;;;;;;5068047;28;20454;-41
2022/01/11 11:57:27;;;;;;;9.07;6.50;;;10.90;98.80;;;;;;5067509;28;20755;-41
2022/01/11 11:59:57;;;;;;;8.80;6.43;;;11.40;98.50;;;;;;5067250;28;20808;-45
2022/01/11 12:02:35;;;;;;;8.80;5.00;;;13.10;96.20;;;;;;5061668;28;20430;-41
2022/01/11 12:05:04;;;;;;;9.73;5.97;;;15.40;91.70;;;;;;5067510;28;20446;-42
2022/01/11 12:07:41;;;;;;;8.53;4.87;;;17.90;82.40;;;;;;5053281;28;20918;-41
2022/01/11 12:10:15;;;;;;;6.77;4.60;;;19.60;73.70;;;;;;5067111;28;20423;-43
2022/01/11 12:12:49;;;;;;;8.57;4.87;;;21.70;63.20;;;;;;5067410;28;20833;-42
2022/01/11 12:15:35;;;;;;;6.33;4.53;;;22.70;57.10;;;;;;5085270;28;20503;-41
2022/01/11 12:18:00;;;;;;;7.10;4.83;;;23.30;53.40;;;;;;5060324;28;20419;-43
2022/01/11 12:20:52;;;;;;;8.20;4.67;;;23.70;51.80;;;;;;5066475;28;20408;-43
2022/01/11 12:23:35;;;;;;;6.73;4.80;;;23.80;49.40;;;;;;5067483;28;20565;-43
2022/01/11 12:26:20;;;;;;;5.67;5.00;;;22.80;49.50;;;;;;5070035;28;20857;-42
2022/01/11 12:29:07;;;;;;;5.70;4.40;;;22.80;48.80;;;;;;5055924;28;20443;-42
2022/01/11 12:31:36;;;;;;;8.13;4.70;;;21.90;49.10;;;;;;5039294;28;20439;-42
2022/01/11 12:34:03;;;;;;;9.33;4.57;;;20.40;51.10;;;;;;5061273;28;20553;-44
2022/01/11 12:36:59;;;;;;;7.33;4.90;;;18.10;55.00;;;;;;5066964;28;20416;-42
2022/01/11 12:39:28;;;;;;;5.83;4.10;;;15.20;59.50;;;;;;5066628;28;20681;-41
2022/01/11 12:41:55;;;;;;;5.17;3.70;;;13.70;67.80;;;;;;5072458;28;20428;-41
2022/01/11 12:44:32;;;;;;;4.07;3.67;;;12.40;73.90;;;;;;5063669;28;20487;-45
2022/01/11 12:47:09;;;;;;;5.37;3.70;;;11.30;82.50;;;;;;5057761;28;20436;-42
2022/01/11 12:49:43;;;;;;;7.97;3.60;;;10.70;89.80;;;;;;5065173;28;20423;-43
2022/01/11 12:52:12;;;;;;;4.50;3.57;;;10.50;92.60;;;;;;5067039;28;20423;-41
2022/01/11 12:54:48;;;;;;;7.40;4.10;;;10.20;94.20;;;;;;5066905;28;20471;-42
2022/01/11 12:57:20;;;;;;;4.37;3.50;;;10.30;95.20;;;;;;5066829;28;20813;-41
2022/01/11 12:59:51;;;;;;;3.60;3.00;;;10.00;95.50;;;;;;5066359;28;20435;-43
2022/01/11 13:02:22;;;;;;;5.70;3.80;;;9.70;96.90;;;;;;5060185;28;20459;-41